createdAt,value
2022-08-02T00:02:08.505Z,94.23
2022-08-02T00:05:13.596Z,92.98
2022-08-02T00:08:16.298Z,93.54
2022-08-02T00:11:19.015Z,93.37
2022-08-02T00:14:21.636Z,94.12
2022-08-02T00:17:24.424Z,94.96
2022-08-02T00:20:28.358Z,94.35
2022-08-02T00:23:31.067Z,95.04
2022-08-02T00:26:33.756Z,95.91
2022-08-02T00:29:42.699Z,95.96
2022-08-02T00:32:55.759Z,97.23
2022-08-02T00:35:59.694Z,96.48
2022-08-02T00:39:02.300Z,96.12
2022-08-02T00:42:05.283Z,96.01
2022-08-02T00:45:09.037Z,95.55
2022-08-02T00:48:12.871Z,96.66
2022-08-02T00:51:18.067Z,97.40
2022-08-02T00:54:20.849Z,96.95
2022-08-02T00:57:23.498Z,97.00
2022-08-02T01:00:26.107Z,96.87
2022-08-02T01:03:32.923Z,95.60
2022-08-02T01:06:37.151Z,95.47
2022-08-02T01:09:39.733Z,95.39
2022-08-02T01:12:42.380Z,94.65
2022-08-02T01:15:52.317Z,95.15
2022-08-02T01:19:07.828Z,96.13
2022-08-02T01:23:00.601Z,96.85
2022-08-02T01:26:19.037Z,96.79
2022-08-02T01:29:30.279Z,95.02
2022-08-02T01:32:37.950Z,95.00
2022-08-02T01:35:50.723Z,95.90
2022-08-02T01:38:57.111Z,96.19
2022-08-02T01:42:01.570Z,96.81
2022-08-02T01:45:09.040Z,97.19
2022-08-02T01:48:14.033Z,96.77
2022-08-02T01:51:19.506Z,95.81
2022-08-02T01:54:25.939Z,96.78
2022-08-02T01:57:33.595Z,96.75
2022-08-02T02:00:44.610Z,96.45
2022-08-02T02:03:49.589Z,96.50
2022-08-02T02:06:53.620Z,96.35
2022-08-02T02:09:57.817Z,97.10
2022-08-02T02:13:03.914Z,97.60
2022-08-02T02:16:08.542Z,96.98
2022-08-02T02:19:14.103Z,95.92
2022-08-02T02:22:24.066Z,95.33
2022-08-02T02:25:36.123Z,95.57
2022-08-02T02:28:47.724Z,95.88
2022-08-02T02:31:55.773Z,95.27
2022-08-02T02:35:02.527Z,96.68
2022-08-02T02:38:07.535Z,97.23
2022-08-02T02:41:11.506Z,98.88
2022-08-02T02:44:21.509Z,99.03
2022-08-02T02:47:40.302Z,98.99
2022-08-02T02:50:45.346Z,98.38
2022-08-02T02:54:30.158Z,96.93
2022-08-02T02:57:13.037Z,98.65
2022-08-02T03:00:16.162Z,96.39
2022-08-02T03:03:21.462Z,97.66
2022-08-02T03:06:25.521Z,98.80
2022-08-02T03:09:28.146Z,97.30
2022-08-02T03:12:32.502Z,96.81
2022-08-02T03:15:35.894Z,97.83
2022-08-02T03:18:40.877Z,97.20
2022-08-02T03:21:43.909Z,97.56
2022-08-02T03:24:46.549Z,97.71
2022-08-02T03:27:49.139Z,97.99
2022-08-02T03:30:51.842Z,97.48
2022-08-02T03:33:57.174Z,96.01
2022-08-02T03:37:00.809Z,96.54
2022-08-02T03:40:04.531Z,97.64
2022-08-02T03:43:08.102Z,98.38
2022-08-02T03:46:11.275Z,96.04
2022-08-02T03:49:18.453Z,96.96
2022-08-02T03:52:21.567Z,97.38
2022-08-02T03:55:24.404Z,96.74
2022-08-02T03:58:27.413Z,97.72
2022-08-02T04:01:30.007Z,99.52
2022-08-02T04:04:33.974Z,99.57
2022-08-02T04:08:34.574Z,98.68
2022-08-02T04:11:16.790Z,97.45
2022-08-02T04:14:19.842Z,96.86
2022-08-02T04:17:24.930Z,97.55
2022-08-02T04:20:32.502Z,98.57
2022-08-02T04:23:37.460Z,98.67
2022-08-02T04:26:44.053Z,99.18
2022-08-02T04:29:53.545Z,97.79
2022-08-02T04:32:56.623Z,98.64
2022-08-02T04:36:00.688Z,98.51
2022-08-02T04:39:03.473Z,98.88
2022-08-02T04:42:06.926Z,98.60
2022-08-02T04:45:11.836Z,98.59
2022-08-02T04:48:19.374Z,99.75
2022-08-02T04:51:23.306Z,98.83
2022-08-02T04:54:40.877Z,98.94
2022-08-02T04:57:58.694Z,99.69
2022-08-02T05:01:01.556Z,100.00
2022-08-02T05:04:04.684Z,99.94
2022-08-02T05:07:08.611Z,98.65
2022-08-02T05:10:11.597Z,98.63
2022-08-02T05:13:14.188Z,98.83
2022-08-02T05:16:16.843Z,100.00
2022-08-02T05:19:19.418Z,99.91
2022-08-02T05:22:23.358Z,99.84
2022-08-02T05:25:26.914Z,99.82
2022-08-02T05:28:29.491Z,100.00
2022-08-02T05:31:34.471Z,100.00
2022-08-02T05:34:37.033Z,100.00
2022-08-02T05:37:42.200Z,100.00
2022-08-02T05:40:54.383Z,100.00
2022-08-02T05:43:57.914Z,100.00
2022-08-02T05:47:00.521Z,100.00
2022-08-02T05:50:03.197Z,100.00
2022-08-02T05:53:17.114Z,100.00
2022-08-02T05:56:26.047Z,100.00
2022-08-02T05:59:34.418Z,100.00
2022-08-02T06:02:49.158Z,100.00
2022-08-02T06:05:57.216Z,100.00
2022-08-02T06:09:03.928Z,100.00
2022-08-02T06:12:10.737Z,98.99
2022-08-02T06:15:15.177Z,100.00
2022-08-02T06:18:19.059Z,100.00
2022-08-02T06:22:33.089Z,100.00
2022-08-02T06:24:56.507Z,97.16
2022-08-02T06:28:00.796Z,97.50
2022-08-02T06:31:03.886Z,97.42
2022-08-02T06:34:06.494Z,95.91
2022-08-02T06:37:15.630Z,97.08
2022-08-02T06:40:27.931Z,94.69
2022-08-02T06:43:39.327Z,91.55
2022-08-02T06:47:10.032Z,92.38
2022-08-02T06:50:05.891Z,91.84
2022-08-02T06:53:09.088Z,89.86
2022-08-02T06:56:13.018Z,87.54
2022-08-02T06:59:15.623Z,90.11
2022-08-02T07:02:18.314Z,90.87
2022-08-02T07:05:20.966Z,85.79
2022-08-02T07:08:23.818Z,84.20
2022-08-02T07:11:27.787Z,86.60
2022-08-02T07:14:30.367Z,82.51
2022-08-02T07:17:35.926Z,85.33
2022-08-02T07:20:38.516Z,86.94
2022-08-02T07:23:41.067Z,84.86
2022-08-02T07:27:08.602Z,86.83
2022-08-02T07:30:09.050Z,84.31
2022-08-02T07:33:11.761Z,83.66
2022-08-02T07:36:34.403Z,82.56
2022-08-02T07:39:37.574Z,80.78
2022-08-02T07:42:51.871Z,80.30
2022-08-02T07:46:00.830Z,80.85
2022-08-02T07:49:03.809Z,76.36
2022-08-02T07:52:06.425Z,85.30
2022-08-02T07:55:11.563Z,78.10
2022-08-02T07:58:16.386Z,80.03
2022-08-02T08:01:20.305Z,78.39
2022-08-02T08:04:23.395Z,75.17
2022-08-02T08:07:25.963Z,74.37
2022-08-02T08:10:29.093Z,76.64
2022-08-02T08:13:33.042Z,76.84
2022-08-02T08:16:35.885Z,73.84
2022-08-02T08:19:50.870Z,77.45
2022-08-02T08:22:54.899Z,71.90
2022-08-02T08:25:57.489Z,76.30
2022-08-02T08:29:06.412Z,71.91
2022-08-02T08:32:14.125Z,69.09
2022-08-02T08:35:19.187Z,67.22
2022-08-02T08:38:22.074Z,67.77
2022-08-02T08:41:25.647Z,68.40
2022-08-02T08:44:34.745Z,66.72
2022-08-02T08:47:39.834Z,66.12
2022-08-02T08:50:48.583Z,64.11
2022-08-02T08:53:55.375Z,63.08
2022-08-02T08:56:58.629Z,63.83
2022-08-02T09:00:02.878Z,61.90
2022-08-02T09:03:06.966Z,61.90
2022-08-02T09:06:09.601Z,60.20
2022-08-02T09:09:12.225Z,61.10
2022-08-02T09:12:15.962Z,62.12
2022-08-02T09:15:25.885Z,60.22
2022-08-02T09:18:32.384Z,61.61
2022-08-02T09:21:37.476Z,60.57
2022-08-02T09:24:45.681Z,56.88
2022-08-02T09:27:49.380Z,58.36
2022-08-02T09:30:53.842Z,56.92
2022-08-02T09:33:58.441Z,58.04
2022-08-02T09:37:01.135Z,57.61
2022-08-02T09:40:05.601Z,56.30
2022-08-02T09:43:09.924Z,58.37
2022-08-02T09:46:15.874Z,55.54
2022-08-02T09:49:21.173Z,52.86
2022-08-02T09:52:37.398Z,53.00
2022-08-02T09:55:56.220Z,53.31
2022-08-02T09:58:58.918Z,50.81
2022-08-02T10:02:14.812Z,54.93
2022-08-02T10:05:22.033Z,52.69
2022-08-02T10:08:26.478Z,47.40
2022-08-02T10:11:29.740Z,48.01
2022-08-02T10:14:34.718Z,47.08
2022-08-02T10:17:39.103Z,45.29
2022-08-02T10:20:45.503Z,43.86
2022-08-02T10:23:50.614Z,44.98
2022-08-02T10:26:54.710Z,45.80
2022-08-02T10:29:59.915Z,47.48
2022-08-02T10:33:05.356Z,46.85
2022-08-02T10:36:11.011Z,44.57
2022-08-02T10:39:14.179Z,43.32
2022-08-02T10:42:47.882Z,42.74
2022-08-02T10:45:51.954Z,42.35
2022-08-02T10:52:33.075Z,39.25
2022-08-02T10:55:45.823Z,39.91
2022-08-02T10:58:48.460Z,39.58
2022-08-02T11:01:51.800Z,38.42
2022-08-02T11:05:08.853Z,38.30
2022-08-02T11:08:21.959Z,39.17
2022-08-02T11:11:54.298Z,40.96
2022-08-02T11:15:00.236Z,37.88
2022-08-02T11:18:02.802Z,38.02
2022-08-02T11:21:28.281Z,37.54
2022-08-02T11:24:32.479Z,37.73
2022-08-02T11:27:35.118Z,36.84
2022-08-02T11:30:38.888Z,35.56
2022-08-02T11:33:41.607Z,36.82
2022-08-02T11:36:47.330Z,33.79
2022-08-02T11:39:52.563Z,33.64
2022-08-02T11:42:55.197Z,33.50
2022-08-02T11:45:57.946Z,32.66
2022-08-02T11:49:12.679Z,32.27
2022-08-02T11:52:17.047Z,32.81
2022-08-02T11:55:19.665Z,33.21
2022-08-02T11:58:22.470Z,32.96
2022-08-02T12:01:25.066Z,33.14
2022-08-02T12:04:27.682Z,33.23
2022-08-02T12:07:35.345Z,35.04
2022-08-02T12:10:48.372Z,32.90
2022-08-02T12:13:56.781Z,35.07
2022-08-02T12:17:18.021Z,33.77
2022-08-02T12:20:21.226Z,35.38
2022-08-02T12:23:25.683Z,33.60
2022-08-02T12:26:28.428Z,34.80
2022-08-02T12:29:58.446Z,32.92
2022-08-02T12:32:55.265Z,35.26
2022-08-02T12:35:58.075Z,35.65
2022-08-02T12:39:02.611Z,34.78
2022-08-02T12:42:06.439Z,33.17
2022-08-02T12:45:09.792Z,33.85
2022-08-02T12:48:12.506Z,31.43
2022-08-02T12:51:51.130Z,33.31
2022-08-02T12:54:50.209Z,34.53
2022-08-02T12:57:55.150Z,32.24
2022-08-02T13:00:59.745Z,31.42
2022-08-02T13:04:10.221Z,34.17
2022-08-02T13:07:16.029Z,32.94
2022-08-02T13:10:21.344Z,36.39
2022-08-02T13:13:23.958Z,34.70
2022-08-02T13:16:30.685Z,35.99
2022-08-02T13:19:34.206Z,33.29
2022-08-02T13:22:37.369Z,35.43
2022-08-02T13:25:52.917Z,35.51
2022-08-02T13:28:55.635Z,33.24
2022-08-02T13:31:58.258Z,33.05
2022-08-02T13:35:00.841Z,33.74
2022-08-02T13:38:06.450Z,35.08
2022-08-02T13:41:10.469Z,32.42
2022-08-02T13:44:13.042Z,34.46
2022-08-02T13:47:15.864Z,35.41
2022-08-02T13:50:38.440Z,33.82
2022-08-02T13:53:41.106Z,33.55
2022-08-02T13:56:45.082Z,31.71
2022-08-02T13:59:58.295Z,33.09
2022-08-02T14:03:01.858Z,31.96
2022-08-02T14:06:06.649Z,32.57
2022-08-02T14:09:09.280Z,33.32
2022-08-02T14:12:19.771Z,32.29
2022-08-02T14:15:22.597Z,31.44
2022-08-02T14:18:25.282Z,31.79
2022-08-02T14:21:27.857Z,32.84
2022-08-02T14:24:31.635Z,34.17
2022-08-02T14:27:39.329Z,34.51
2022-08-02T14:30:42.662Z,36.05
2022-08-02T14:33:45.294Z,36.87
2022-08-02T14:36:53.314Z,34.58
2022-08-02T14:40:00.058Z,36.25
2022-08-02T14:43:05.286Z,35.92
2022-08-02T14:46:07.894Z,37.79
2022-08-02T14:49:12.175Z,37.18
2022-08-02T14:52:19.533Z,35.90
2022-08-02T14:55:22.221Z,37.81
2022-08-02T14:58:26.144Z,39.06
2022-08-02T15:01:28.798Z,38.37
2022-08-02T15:04:34.354Z,36.66
2022-08-02T15:07:49.557Z,38.62
2022-08-02T15:10:52.440Z,39.76
2022-08-02T15:13:59.137Z,37.51
2022-08-02T15:17:03.548Z,40.33
2022-08-02T15:20:25.516Z,40.26
2022-08-02T15:23:37.086Z,39.41
2022-08-02T15:26:40.291Z,40.39
2022-08-02T15:29:45.869Z,41.46
2022-08-02T15:32:53.365Z,40.82
2022-08-02T15:35:56.414Z,42.73
2022-08-02T15:38:58.982Z,41.80
2022-08-02T15:42:01.636Z,40.74
2022-08-02T15:45:06.250Z,41.89
2022-08-02T15:48:08.972Z,41.91
2022-08-02T15:51:11.622Z,41.63
2022-08-02T15:54:14.222Z,42.62
2022-08-02T15:57:16.772Z,41.54
2022-08-02T16:00:22.269Z,41.70
2022-08-02T16:03:24.875Z,44.32
2022-08-02T16:06:27.555Z,42.83
2022-08-02T16:09:30.693Z,45.25
2022-08-02T16:12:33.615Z,43.88
2022-08-02T16:15:37.534Z,44.52
2022-08-02T16:18:40.156Z,44.76
2022-08-02T16:21:42.807Z,44.89
2022-08-02T16:24:45.717Z,46.27
2022-08-02T16:27:59.431Z,51.30
2022-08-02T16:31:11.817Z,48.41
2022-08-02T16:34:15.788Z,48.31
2022-08-02T16:37:18.406Z,49.73
2022-08-02T16:40:21.167Z,51.27
2022-08-02T16:43:23.830Z,47.92
2022-08-02T16:46:31.531Z,55.12
2022-08-02T16:50:04.600Z,50.71
2022-08-02T16:52:58.878Z,52.28
2022-08-02T16:56:01.794Z,48.61
2022-08-02T16:59:04.527Z,48.66
2022-08-02T17:02:19.561Z,51.54
2022-08-02T17:05:24.359Z,52.45
2022-08-02T17:08:40.385Z,55.53
2022-08-02T17:11:57.842Z,53.13
2022-08-02T17:16:00.979Z,57.32
2022-08-02T17:18:26.948Z,58.70
2022-08-02T17:21:31.757Z,61.13
2022-08-02T17:24:34.383Z,61.35
2022-08-02T17:27:37.577Z,59.79
2022-08-02T17:30:40.241Z,64.52
2022-08-02T17:33:44.168Z,64.01
2022-08-02T17:36:49.846Z,66.19
2022-08-02T17:39:52.573Z,64.57
2022-08-02T17:42:55.174Z,65.73
2022-08-02T17:46:00.533Z,66.76
2022-08-02T17:49:20.763Z,65.85
2022-08-02T17:52:52.356Z,65.78
2022-08-02T17:55:50.886Z,67.23
2022-08-02T17:58:54.088Z,68.89
2022-08-02T18:01:58.487Z,70.63
2022-08-02T18:05:11.827Z,72.51
2022-08-02T18:08:18.366Z,69.64
2022-08-02T18:11:51.762Z,69.90
2022-08-02T18:14:49.199Z,71.69
2022-08-02T18:17:52.162Z,72.16
2022-08-02T18:21:15.606Z,72.27
2022-08-02T18:24:24.065Z,74.25
2022-08-02T18:27:26.840Z,76.37
2022-08-02T18:30:29.442Z,75.53
2022-08-02T18:33:57.863Z,75.64
2022-08-02T18:36:56.267Z,76.95
2022-08-02T18:39:58.886Z,75.81
2022-08-02T18:43:03.440Z,76.75
2022-08-02T18:46:15.731Z,76.76
2022-08-02T18:49:19.685Z,78.18
2022-08-02T18:52:31.549Z,77.99
2022-08-02T18:55:59.524Z,77.92
2022-08-02T18:58:58.409Z,78.15
2022-08-02T19:02:01.121Z,78.94
2022-08-02T19:05:06.891Z,78.04
2022-08-02T19:08:11.593Z,78.00
2022-08-02T19:11:14.242Z,78.29
2022-08-02T19:14:19.131Z,79.86
2022-08-02T19:17:55.197Z,80.55
2022-08-02T19:20:52.571Z,79.65
2022-08-02T19:23:56.528Z,79.96
2022-08-02T19:26:59.179Z,79.63
2022-08-02T19:30:16.879Z,79.69
2022-08-02T19:33:54.331Z,78.90
2022-08-02T19:36:42.066Z,79.04
2022-08-02T19:39:46.216Z,79.45
2022-08-02T19:44:21.516Z,78.38
2022-08-02T19:46:15.543Z,77.72
2022-08-02T19:49:39.151Z,76.53
2022-08-02T19:52:42.086Z,77.02
2022-08-02T19:56:00.158Z,77.55
2022-08-02T19:59:13.175Z,78.04
2022-08-02T20:02:17.299Z,77.14
2022-08-02T20:05:24.105Z,77.00
2022-08-02T20:08:31.924Z,75.48
2022-08-02T20:11:40.230Z,75.02
2022-08-02T20:14:50.970Z,75.87
2022-08-02T20:17:54.050Z,75.63
2022-08-02T20:20:56.703Z,75.53
2022-08-02T20:23:59.644Z,75.21
2022-08-02T20:27:04.491Z,75.37
2022-08-02T20:30:08.263Z,76.14
2022-08-02T20:33:21.651Z,76.19
2022-08-02T20:36:25.171Z,76.19
2022-08-02T20:39:42.841Z,76.04
2022-08-02T20:42:48.632Z,76.71
2022-08-02T20:45:51.551Z,76.69
2022-08-02T20:48:55.937Z,77.41
2022-08-02T20:52:02.151Z,77.97
2022-08-02T20:55:05.006Z,78.96
2022-08-02T20:58:11.665Z,78.64
2022-08-02T21:01:14.657Z,79.38
2022-08-02T21:04:19.368Z,80.38
2022-08-02T21:07:22.081Z,80.34
2022-08-02T21:10:24.729Z,79.90
2022-08-02T21:13:29.172Z,80.67
2022-08-02T21:16:32.040Z,81.45
2022-08-02T21:19:36.544Z,80.73
2022-08-02T21:22:46.847Z,78.80
2022-08-02T21:25:57.406Z,80.40
2022-08-02T21:32:25.254Z,81.24
2022-08-02T21:35:28.080Z,81.16
2022-08-02T21:38:35.865Z,82.08
2022-08-02T21:41:45.929Z,81.69
2022-08-02T21:44:51.216Z,81.23
2022-08-02T21:47:53.833Z,83.61
2022-08-02T21:50:56.414Z,83.28
2022-08-02T21:54:18.197Z,85.23
2022-08-02T21:57:21.675Z,85.12
2022-08-02T22:00:28.841Z,85.45
2022-08-02T22:03:32.558Z,85.51
2022-08-02T22:06:35.590Z,85.16
2022-08-02T22:09:43.628Z,84.98
2022-08-02T22:12:47.830Z,86.18
2022-08-02T22:15:51.782Z,86.27
2022-08-02T22:18:55.178Z,86.76
2022-08-02T22:22:00.380Z,88.36
2022-08-02T22:25:04.191Z,87.18
2022-08-02T22:28:36.768Z,87.21
2022-08-02T22:31:40.961Z,87.93
2022-08-02T22:34:51.718Z,87.97
2022-08-02T22:38:16.932Z,88.46
2022-08-02T22:41:18.462Z,88.15
2022-08-02T22:44:21.091Z,88.98
2022-08-02T22:47:25.031Z,88.73
2022-08-02T22:50:29.539Z,87.78
2022-08-02T22:53:35.859Z,87.81
2022-08-02T22:56:38.849Z,87.70
2022-08-02T22:59:47.281Z,88.26
2022-08-02T23:02:52.864Z,88.71
2022-08-02T23:05:56.034Z,88.96
2022-08-02T23:08:58.669Z,88.55
2022-08-02T23:12:01.239Z,89.00
2022-08-02T23:15:04.387Z,88.02
2022-08-02T23:18:25.811Z,87.17
2022-08-02T23:22:01.360Z,87.44
2022-08-02T23:24:55.894Z,86.70
2022-08-02T23:27:58.651Z,87.33
2022-08-02T23:31:01.545Z,88.90
2022-08-02T23:34:06.009Z,88.48
2022-08-02T23:37:09.500Z,89.33
2022-08-02T23:40:12.397Z,89.00
2022-08-02T23:43:18.737Z,88.86
2022-08-02T23:46:21.333Z,88.78
2022-08-02T23:49:25.540Z,87.66
2022-08-02T23:52:28.249Z,87.40
2022-08-02T23:55:31.634Z,86.61
2022-08-02T23:58:34.267Z,86.34
